| time (UTC) | temp F | wind direction | speed MPH | gust MPH | rain 1hr in | rain 24hr in | rain mn in | humidity % | barometer mb |
| 20260904083437 | 77 | 138 | 2.0 | 3.0 | 0.00 | 0.03 | 0.00 | 81 | 1014.8 |
| 20260904082436 | 78 | 170 | 1.0 | 2.0 | 0.00 | 0.03 | 0.00 | 80 | 1014.7 |
| 20260904081437 | 78 | 158 | 4.0 | 4.0 | 0.00 | 0.03 | 0.00 | 80 | 1014.8 |
| 20260904080456 | 78 | 119 | 3.0 | 3.0 | 0.00 | 0.03 | 0.00 | 79 | 1014.7 |
| 20260904075437 | 78 | 135 | 5.0 | 6.0 | 0.00 | 0.03 | 0.00 | 78 | 1014.7 |
| 20260904074437 | 78 | 178 | 3.0 | 3.0 | 0.00 | 0.03 | 0.00 | 78 | 1014.8 |
| 20260904073437 | 78 | 154 | 3.0 | 3.0 | 0.00 | 0.03 | 0.00 | 77 | 1014.9 |
| 20260904072436 | 78 | 162 | 2.0 | 2.0 | 0.00 | 0.03 | 0.00 | 76 | 1014.7 |
| 20260904071436 | 78 | 184 | 5.0 | 6.0 | 0.00 | 0.03 | 0.00 | 76 | 1014.8 |
| 20260904070436 | 79 | 168 | 2.0 | 3.0 | 0.00 | 0.03 | 0.00 | 75 | 1014.9 |
| 20260904065436 | 79 | 144 | 4.0 | 4.0 | 0.00 | 0.03 | 0.00 | 75 | 1015.0 |
| 20260904064436 | 79 | 144 | 3.0 | 4.0 | 0.00 | 0.03 | 0.00 | 74 | 1015.1 |
| 20260904063436 | 79 | 166 | 1.0 | 2.0 | 0.00 | 0.03 | 0.00 | 73 | 1015.2 |
| 20260904062437 | 79 | 161 | 6.0 | 8.0 | 0.00 | 0.03 | 0.00 | 73 | 1015.2 |
| 20260904061436 | 79 | 168 | 2.0 | 3.0 | 0.00 | 0.03 | 0.00 | 72 | 1015.1 |
| 20260904060436 | 79 | 154 | 3.0 | 3.0 | 0.00 | 0.03 | 0.00 | 72 | 1015.0 |
| 20260904055437 | 79 | 185 | 2.0 | 2.0 | 0.00 | 0.03 | 0.00 | 72 | 1015.2 |
| 20260904054517 | 79 | 177 | 2.0 | 3.0 | 0.00 | 0.03 | 0.00 | 71 | 1014.9 |
| 20260904053436 | 79 | 184 | 1.0 | 1.0 | 0.00 | 0.03 | 0.00 | 70 | 1014.9 |
| 20260904052436 | 80 | 186 | 2.0 | 2.0 | 0.00 | 0.03 | 0.00 | 70 | 1014.8 |
| 20260904051436 | 80 | 170 | 3.0 | 4.0 | 0.00 | 0.03 | 0.00 | 69 | 1014.9 |
| 20260904050456 | 80 | 168 | 4.0 | 6.0 | 0.00 | 0.03 | 0.00 | 69 | 1014.9 |
| 20260904045437 | 80 | 162 | 5.0 | 6.0 | 0.00 | 0.03 | 0.03 | 68 | 1014.9 |
| 20260904044436 | 80 | 181 | 3.0 | 4.0 | 0.00 | 0.03 | 0.03 | 68 | 1014.8 |
| 20260904043438 | 80 | 148 | 4.0 | 4.0 | 0.00 | 0.03 | 0.03 | 67 | 1014.9 |
| 20260904042457 | 80 | 136 | 2.0 | 3.0 | 0.00 | 0.03 | 0.03 | 68 | 1015.0 |
| 20260904041457 | 81 | 194 | 4.0 | 4.0 | 0.00 | 0.03 | 0.03 | 68 | 1015.1 |
| 20260904040437 | 81 | 214 | 3.0 | 4.0 | 0.00 | 0.03 | 0.03 | 68 | 1015.2 |
| 20260904035437 | 81 | 160 | 2.0 | 2.0 | 0.00 | 0.03 | 0.03 | 69 | 1015.1 |
| 20260904034437 | 81 | 179 | 6.0 | 8.0 | 0.00 | 0.03 | 0.03 | 68 | 1015.0 |
| 20260904033457 | 82 | 139 | 2.0 | 3.0 | 0.00 | 0.03 | 0.03 | 69 | 1015.0 |
| 20260904032437 | 82 | 151 | 3.0 | 3.0 | 0.00 | 0.03 | 0.03 | 69 | 1015.1 |
| 20260904031437 | 82 | 175 | 2.0 | 2.0 | 0.00 | 0.03 | 0.03 | 68 | 1015.1 |
| 20260904030437 | 82 | 139 | 4.0 | 6.0 | 0.00 | 0.03 | 0.03 | 68 | 1014.8 |
| 20260904025437 | 83 | 162 | 4.0 | 6.0 | 0.00 | 0.03 | 0.03 | 67 | 1014.8 |
| 20260904024436 | 83 | 155 | 5.0 | 7.0 | 0.00 | 0.03 | 0.03 | 65 | 1014.6 |
| 20260904023437 | 83 | 184 | 4.0 | 4.0 | 0.00 | 0.03 | 0.03 | 64 | 1014.4 |
| 20260904022438 | 83 | 206 | 6.0 | 7.0 | 0.00 | 0.03 | 0.03 | 68 | 1014.2 |
| 20260904021437 | 84 | 138 | 4.0 | 4.0 | 0.00 | 0.03 | 0.03 | 69 | 1014.3 |
| 20260904020436 | 84 | 172 | 2.0 | 3.0 | 0.00 | 0.03 | 0.03 | 68 | 1014.0 |
| 20260904015437 | 84 | 142 | 3.0 | 4.0 | 0.00 | 0.03 | 0.03 | 67 | 1013.8 |
| 20260904014517 | 84 | 153 | 4.0 | 4.0 | 0.00 | 0.03 | 0.03 | 67 | 1013.6 |
| 20260904013437 | 84 | 135 | 4.0 | 6.0 | 0.00 | 0.03 | 0.03 | 66 | 1013.5 |
| 20260904012437 | 84 | 150 | 6.0 | 9.0 | 0.00 | 0.03 | 0.03 | 65 | 1013.4 |
| 20260904011457 | 85 | 154 | 8.0 | 11.0 | 0.00 | 0.03 | 0.03 | 64 | 1013.5 |
| 20260904010437 | 85 | 159 | 4.0 | 6.0 | 0.00 | 0.03 | 0.03 | 63 | 1013.3 |
| 20260904005437 | 85 | 143 | 3.0 | 3.0 | 0.00 | 0.03 | 0.03 | 62 | 1013.4 |
| 20260904004456 | 86 | 150 | 6.0 | 9.0 | 0.00 | 0.03 | 0.03 | 59 | 1013.4 |
| 20260904003437 | 86 | 148 | 4.0 | 6.0 | 0.00 | 0.03 | 0.03 | 57 | 1013.4 |
| 20260904002437 | 87 | 165 | 12.0 | 14.0 | 0.00 | 0.03 | 0.03 | 57 | 1013.3 |
| 20260904001437 | 87 | 144 | 5.0 | 6.0 | 0.00 | 0.03 | 0.03 | 57 | 1013.2 |
| 20260904000440 | 87 | 123 | 7.0 | 11.0 | 0.00 | 0.03 | 0.03 | 58 | 1013.3 |
| 20260903235436 | 88 | 143 | 9.0 | 11.0 | 0.00 | 0.03 | 0.03 | 57 | 1013.1 |
| 20260903234437 | 88 | 145 | 8.0 | 9.0 | 0.00 | 0.03 | 0.03 | 57 | 1013.2 |
| 20260903233436 | 88 | 191 | 10.0 | 10.0 | 0.00 | 0.03 | 0.03 | 57 | 1013.0 |
| 20260903232436 | 89 | 158 | 7.0 | 9.0 | 0.00 | 0.03 | 0.03 | 57 | 1012.9 |
| 20260903231437 | 89 | 168 | 13.0 | 16.0 | 0.00 | 0.03 | 0.03 | 56 | 1012.7 |
| 20260903230436 | 89 | 152 | 4.0 | 9.0 | 0.00 | 0.03 | 0.03 | 55 | 1013.0 |
| 20260903225436 | 89 | 151 | 8.0 | 8.0 | 0.00 | 0.03 | 0.03 | 55 | 1012.7 |
| 20260903224436 | 89 | 149 | 11.0 | 11.0 | 0.00 | 0.03 | 0.03 | 55 | 1013.0 |
| 20260903223436 | 89 | 182 | 9.0 | 13.0 | 0.00 | 0.03 | 0.03 | 56 | 1012.7 |
| 20260903222437 | 89 | 169 | 9.0 | 15.0 | 0.00 | 0.03 | 0.03 | 55 | 1012.7 |
| 20260903221436 | 89 | 164 | 11.0 | 14.0 | 0.00 | 0.03 | 0.03 | 56 | 1012.6 |
| 20260903220436 | 91 | 181 | 6.0 | 7.0 | 0.00 | 0.03 | 0.03 | 54 | 1012.6 |
| 20260903215436 | 90 | 150 | 5.0 | 7.0 | 0.00 | 0.03 | 0.03 | 54 | 1012.9 |
| 20260903214436 | 90 | 179 | 11.0 | 17.0 | 0.00 | 0.03 | 0.03 | 54 | 1013.0 |
| 20260903213437 | 89 | 159 | 7.0 | 10.0 | 0.00 | 0.03 | 0.03 | 56 | 1013.1 |
| 20260903212457 | 89 | 162 | 12.0 | 14.0 | 0.00 | 0.03 | 0.03 | 57 | 1013.3 |
| 20260903211437 | 88 | 139 | 15.0 | 16.0 | 0.00 | 0.03 | 0.03 | 59 | 1013.3 |
| 20260903210437 | 91 | 144 | 5.0 | 7.0 | 0.00 | 0.03 | 0.03 | 54 | 1013.2 |
| 20260903205437 | 91 | 162 | 6.0 | 10.0 | 0.00 | 0.03 | 0.03 | 54 | 1013.4 |
| 20260903204517 | 89 | 174 | 9.0 | 11.0 | 0.00 | 0.03 | 0.03 | 57 | 1013.6 |
| 20260903203457 | 89 | 139 | 6.0 | 9.0 | 0.00 | 0.03 | 0.03 | 57 | 1013.8 |
| 20260903202437 | 89 | 150 | 14.0 | 16.0 | 0.00 | 0.03 | 0.03 | 58 | 1013.9 |
| 20260903201437 | 89 | 153 | 6.0 | 8.0 | 0.00 | 0.03 | 0.03 | 57 | 1013.9 |
| 20260903200437 | 89 | 257 | 6.0 | 8.0 | 0.00 | 0.03 | 0.03 | 58 | 1014.1 |
| 20260903195437 | 88 | 168 | 5.0 | 7.0 | 0.00 | 0.03 | 0.03 | 59 | 1013.9 |
| 20260903194437 | 87 | 202 | 6.0 | 7.0 | 0.00 | 0.03 | 0.03 | 62 | 1014.1 |
| 20260903193437 | 86 | 175 | 5.0 | 6.0 | 0.00 | 0.03 | 0.03 | 64 | 1014.3 |
| 20260903192437 | 85 | 117 | 6.0 | 8.0 | 0.00 | 0.03 | 0.03 | 66 | 1014.4 |
| 20260903191437 | 86 | 164 | 10.0 | 11.0 | 0.00 | 0.03 | 0.03 | 66 | 1014.7 |
| 20260903190437 | 85 | 156 | 6.0 | 7.0 | 0.00 | 0.03 | 0.03 | 66 | 1014.8 |
| 20260903185437 | 85 | 188 | 11.0 | 17.0 | 0.00 | 0.03 | 0.03 | 68 | 1014.9 |
| 20260903184437 | 85 | 138 | 4.0 | 6.0 | 0.00 | 0.03 | 0.03 | 69 | 1015.1 |
| 20260903183437 | 83 | 164 | 4.0 | 6.0 | 0.00 | 0.03 | 0.03 | 72 | 1015.1 |
| 20260903182437 | 82 | 154 | 10.0 | 14.0 | 0.00 | 0.03 | 0.03 | 73 | 1015.3 |
| 20260903181437 | 82 | 153 | 11.0 | 15.0 | 0.00 | 0.03 | 0.03 | 76 | 1015.3 |
| 20260903180437 | 82 | 166 | 9.0 | 11.0 | 0.00 | 0.03 | 0.03 | 76 | 1015.5 |
| 20260903175436 | 81 | 162 | 11.0 | 14.0 | 0.00 | 0.03 | 0.03 | 80 | 1015.6 |
| 20260903174437 | 80 | 174 | 6.0 | 8.0 | 0.00 | 0.03 | 0.03 | 84 | 1015.7 |
| 20260903173437 | 80 | 171 | 7.0 | 8.0 | 0.00 | 0.03 | 0.03 | 85 | 1015.8 |
| 20260903172437 | 80 | 176 | 6.0 | 7.0 | 0.00 | 0.03 | 0.03 | 86 | 1016.0 |
| 20260903171437 | 80 | 133 | 6.0 | 7.0 | 0.00 | 0.03 | 0.03 | 85 | 1016.2 |
| 20260903170437 | 80 | 122 | 12.0 | 15.0 | 0.00 | 0.03 | 0.03 | 86 | 1016.0 |
| 20260903165457 | 79 | 113 | 6.0 | 7.0 | 0.00 | 0.03 | 0.03 | 87 | 1015.8 |
| 20260903164457 | 80 | 149 | 10.0 | 13.0 | 0.00 | 0.03 | 0.03 | 87 | 1015.9 |
| 20260903163436 | 80 | 131 | 7.0 | 9.0 | 0.00 | 0.03 | 0.03 | 87 | 1015.9 |
| 20260903162436 | 80 | 150 | 11.0 | 13.0 | 0.00 | 0.03 | 0.03 | 87 | 1015.8 |
| 20260903161457 | 80 | 182 | 10.0 | 13.0 | 0.00 | 0.03 | 0.03 | 88 | 1015.7 |
| 20260903160436 | 79 | 129 | 10.0 | 11.0 | 0.00 | 0.03 | 0.03 | 91 | 1015.6 |
| 20260903155436 | 80 | 128 | 6.0 | 7.0 | 0.00 | 0.03 | 0.03 | 90 | 1015.7 |
| 20260903154435 | 80 | 187 | 8.0 | 10.0 | 0.00 | 0.03 | 0.03 | 86 | 1015.8 |
| 20260903153440 | 80 | 127 | 7.0 | 9.0 | 0.00 | 0.03 | 0.03 | 88 | 1015.5 |
| 20260903152440 | 80 | 123 | 4.0 | 6.0 | 0.00 | 0.03 | 0.03 | 89 | 1015.5 |
| 20260903151441 | 80 | 153 | 3.0 | 4.0 | 0.00 | 0.03 | 0.03 | 89 | 1015.6 |
| 20260903150500 | 80 | 181 | 2.0 | 4.0 | 0.00 | 0.03 | 0.03 | 90 | 1015.5 |
| 20260903145440 | 80 | 153 | 8.0 | 9.0 | 0.00 | 0.03 | 0.03 | 90 | 1015.5 |
| 20260903144440 | 80 | 157 | 2.0 | 3.0 | 0.00 | 0.03 | 0.03 | 90 | 1015.4 |
| 20260903143520 | 79 | 146 | 5.0 | 6.0 | 0.00 | 0.03 | 0.03 | 92 | 1015.4 |
| 20260903142440 | 78 | 199 | 5.0 | 6.0 | 0.00 | 0.03 | 0.03 | 92 | 1015.7 |
| 20260903141500 | 78 | 149 | 8.0 | 10.0 | 0.00 | 0.03 | 0.03 | 93 | 1015.7 |
| 20260903140440 | 78 | 226 | 2.0 | 2.0 | 0.00 | 0.03 | 0.03 | 93 | 1015.9 |
| 20260903135500 | 78 | 163 | 9.0 | 10.0 | 0.00 | 0.03 | 0.03 | 93 | 1015.8 |
| 20260903134440 | 77 | 184 | 8.0 | 11.0 | 0.00 | 0.03 | 0.03 | 94 | 1015.7 |
| 20260903133440 | 77 | 176 | 6.0 | 9.0 | 0.00 | 0.03 | 0.03 | 93 | 1015.6 |
| 20260903132440 | 77 | 145 | 5.0 | 7.0 | 0.00 | 0.03 | 0.03 | 94 | 1015.4 |
| 20260903131440 | 77 | 136 | 4.0 | 4.0 | 0.00 | 0.03 | 0.03 | 94 | 1015.5 |
| 20260903130441 | 77 | 116 | 3.0 | 3.0 | 0.00 | 0.03 | 0.03 | 95 | 1015.5 |
| 20260903125501 | 77 | 145 | 5.0 | 6.0 | 0.00 | 0.03 | 0.03 | 95 | 1015.5 |
| 20260903124440 | 76 | 123 | 3.0 | 3.0 | 0.00 | 0.03 | 0.03 | 96 | 1015.3 |
| 20260903123441 | 76 | 127 | 5.0 | 7.0 | 0.00 | 0.03 | 0.03 | 96 | 1015.2 |
| 20260903122441 | 76 | 99 | 2.0 | 3.0 | 0.00 | 0.03 | 0.03 | 96 | 1015.3 |
| 20260903121441 | 76 | 173 | 2.0 | 2.0 | 0.00 | 0.03 | 0.03 | 95 | 1015.0 |
| 20260903120441 | 76 | 136 | 4.0 | 4.0 | 0.00 | 0.03 | 0.03 | 96 | 1015.1 |
| 20260903115441 | 76 | 168 | 4.0 | 4.0 | 0.00 | 0.03 | 0.03 | 96 | 1015.0 |
| 20260903114440 | 76 | 130 | 3.0 | 3.0 | 0.00 | 0.03 | 0.03 | 96 | 1014.8 |
| 20260903113440 | 76 | 143 | 4.0 | 4.0 | 0.00 | 0.03 | 0.03 | 96 | 1014.9 |
| 20260903112440 | 76 | 147 | 4.0 | 4.0 | 0.00 | 0.03 | 0.03 | 95 | 1014.7 |
| 20260903111440 | 76 | 136 | 6.0 | 8.0 | 0.00 | 0.03 | 0.03 | 95 | 1014.8 |
| 20260903110441 | 75 | 132 | 3.0 | 4.0 | 0.00 | 0.03 | 0.03 | 96 | 1014.7 |
| 20260903105441 | 75 | 139 | 4.0 | 6.0 | 0.00 | 0.03 | 0.03 | 95 | 1014.7 |
| 20260903104441 | 75 | 123 | 4.0 | 4.0 | 0.00 | 0.03 | 0.03 | 95 | 1014.5 |
| 20260903103441 | 75 | 170 | 2.0 | 2.0 | 0.00 | 0.03 | 0.03 | 96 | 1014.6 |
| 20260903102441 | 75 | 151 | 2.0 | 3.0 | 0.01 | 0.03 | 0.03 | 95 | 1014.4 |
| 20260903101501 | 75 | 152 | 4.0 | 6.0 | 0.01 | 0.03 | 0.03 | 96 | 1014.4 |
| 20260903100441 | 76 | 136 | 6.0 | 9.0 | 0.03 | 0.03 | 0.03 | 96 | 1014.3 |
| 20260903095441 | 76 | 127 | 5.0 | 7.0 | 0.03 | 0.03 | 0.03 | 96 | 1014.3 |
| 20260903094501 | 76 | 178 | 2.0 | 2.0 | 0.03 | 0.03 | 0.03 | 96 | 1014.3 |
| 20260903093442 | 76 | 187 | 2.0 | 2.0 | 0.03 | 0.03 | 0.03 | 96 | 1014.5 |
| 20260903092441 | 76 | 158 | 3.0 | 4.0 | 0.02 | 0.02 | 0.02 | 95 | 1014.4 |
| 20260903091441 | 76 | 164 | 6.0 | 8.0 | 0.02 | 0.02 | 0.02 | 95 | 1014.6 |
| 20260903090442 | 76 | 155 | 2.0 | 2.0 | 0.00 | 0.00 | 0.00 | 94 | 1014.5 |
| 20260903085441 | 76 | 122 | 4.0 | 4.0 | 0.00 | 0.00 | 0.00 | 92 | 1014.5 |
| 20260903084442 | 76 | 97 | 8.0 | 9.0 | 0.00 | 0.00 | 0.00 | 91 | 1014.3 |